Time;durP1;ratioP1;P1;durP2;ratioP2;P2;SDS_P1;SDS_P2;PMS_P1;PMS_P2;Temp;Humidity;BMP_temperature;BMP_pressure;BME280_temperature;BME280_humidity;BME280_pressure;Samples;Min_cycle;Max_cycle;Signal;HPM_P1;HPM_P2
2021/04/20 00:00:27;;;;;;;14.73;13.13;;;8.50;99.90;;;;;;2097335;28;20036;-70
2021/04/20 00:01:27;;;;;;;16.48;12.40;;;8.50;99.90;;;;;;2098036;28;20088;-70
2021/04/20 00:02:28;;;;;;;13.48;11.18;;;8.40;99.90;;;;;;2096578;28;20069;-70
2021/04/20 00:03:28;;;;;;;15.98;13.25;;;8.40;99.90;;;;;;2097338;28;20060;-70
2021/04/20 00:04:29;;;;;;;12.88;11.57;;;8.40;99.90;;;;;;2097441;28;20480;-70
2021/04/20 00:05:29;;;;;;;13.43;11.60;;;8.40;99.90;;;;;;2097435;28;20108;-70
2021/04/20 00:06:32;;;;;;;13.85;12.32;;;8.40;99.90;;;;;;2098319;28;20062;-70
2021/04/20 00:07:32;;;;;;;14.98;12.75;;;8.40;99.90;;;;;;2105745;28;20051;-70
2021/04/20 00:08:33;;;;;;;14.73;12.20;;;8.40;99.90;;;;;;2099841;28;20060;-70
2021/04/20 00:09:33;;;;;;;19.75;14.10;;;8.30;99.90;;;;;;2097770;28;20463;-70
2021/04/20 00:10:34;;;;;;;15.70;13.13;;;8.30;99.90;;;;;;2097338;28;20049;-70
2021/04/20 00:11:39;;;;;;;16.05;13.32;;;8.30;99.90;;;;;;2097478;28;20028;-70
2021/04/20 00:12:40;;;;;;;14.40;12.40;;;8.30;99.90;;;;;;2096774;28;20025;-70
2021/04/20 00:13:41;;;;;;;16.98;13.05;;;8.30;99.90;;;;;;2096474;28;20024;-70
2021/04/20 00:14:41;;;;;;;15.05;12.30;;;8.30;99.90;;;;;;2096619;28;20020;-70
2021/04/20 00:15:42;;;;;;;17.02;13.48;;;8.30;99.90;;;;;;2091426;28;20120;-70
2021/04/20 00:16:43;;;;;;;17.45;13.32;;;8.20;99.90;;;;;;2100412;28;20426;-70
2021/04/20 00:17:43;;;;;;;13.73;12.23;;;8.20;99.90;;;;;;2105446;28;20028;-70
2021/04/20 00:18:45;;;;;;;16.70;13.20;;;8.20;99.90;;;;;;2105690;28;20039;-70
2021/04/20 00:19:45;;;;;;;15.43;13.52;;;8.20;99.90;;;;;;2102705;28;20040;-70
2021/04/20 00:20:46;;;;;;;14.80;13.20;;;8.10;99.90;;;;;;2097096;28;20028;-70
2021/04/20 00:21:46;;;;;;;15.07;13.55;;;8.10;99.90;;;;;;2097549;28;20104;-70
2021/04/20 00:22:47;;;;;;;15.30;12.07;;;8.10;99.90;;;;;;2096345;28;20498;-70
2021/04/20 00:23:48;;;;;;;13.45;12.05;;;8.10;99.90;;;;;;2097436;28;20555;-70
2021/04/20 00:24:48;;;;;;;14.30;12.70;;;8.10;99.90;;;;;;2101409;28;20031;-70
2021/04/20 00:25:49;;;;;;;15.05;13.27;;;8.10;99.90;;;;;;2105637;28;20024;-70
2021/04/20 00:26:49;;;;;;;15.90;13.98;;;8.10;99.90;;;;;;2105467;28;20028;-70
2021/04/20 00:27:50;;;;;;;15.80;13.38;;;8.10;99.90;;;;;;2101158;28;20498;-70
2021/04/20 00:28:51;;;;;;;14.00;12.48;;;8.00;99.90;;;;;;2088078;28;20642;-70
2021/04/20 00:29:51;;;;;;;15.25;12.48;;;8.00;99.90;;;;;;2096582;28;20012;-70
2021/04/20 00:30:52;;;;;;;14.15;11.57;;;8.00;99.90;;;;;;2097203;28;20410;-70
2021/04/20 00:31:52;;;;;;;16.27;12.27;;;8.00;99.90;;;;;;2097300;28;20082;-70
2021/04/20 00:32:53;;;;;;;17.27;13.55;;;8.00;99.90;;;;;;2096529;28;20495;-70
2021/04/20 00:33:54;;;;;;;13.70;11.85;;;7.90;99.90;;;;;;2097111;28;20025;-70
2021/04/20 00:34:54;;;;;;;14.93;12.75;;;7.90;99.90;;;;;;2097196;28;20070;-70
2021/04/20 00:35:55;;;;;;;15.45;12.18;;;7.90;99.90;;;;;;2097242;28;20464;-70
2021/04/20 00:36:55;;;;;;;13.43;11.77;;;7.90;99.90;;;;;;2097366;28;20021;-70
2021/04/20 00:37:56;;;;;;;14.60;13.02;;;7.90;99.90;;;;;;2102665;28;20020;-70
2021/04/20 00:38:56;;;;;;;16.42;12.65;;;7.90;99.90;;;;;;2105537;28;20024;-71
2021/04/20 00:39:57;;;;;;;16.33;13.48;;;7.90;99.90;;;;;;2105092;28;20055;-70
2021/04/20 00:41:05;;;;;;;14.25;12.38;;;7.80;99.90;;;;;;2096777;28;20463;-70
2021/04/20 00:42:07;;;;;;;16.63;13.02;;;7.80;99.90;;;;;;2088764;28;20025;-70
2021/04/20 00:43:08;;;;;;;15.60;12.75;;;7.80;99.90;;;;;;2089065;28;20075;-70
2021/04/20 00:44:08;;;;;;;14.05;12.55;;;7.80;99.90;;;;;;2092365;28;20093;-70
2021/04/20 00:45:11;;;;;;;15.18;13.32;;;7.80;99.90;;;;;;2097197;28;20114;-71
2021/04/20 00:46:20;;;;;;;19.40;14.80;;;7.80;99.90;;;;;;2096786;28;20025;-70
2021/04/20 00:47:21;;;;;;;16.77;14.25;;;7.80;99.90;;;;;;2097063;28;20486;-70
2021/04/20 00:48:22;;;;;;;14.75;13.18;;;7.70;99.90;;;;;;2097070;28;20382;-70
2021/04/20 00:49:23;;;;;;;19.65;15.30;;;7.70;99.90;;;;;;2102012;28;20030;-70
2021/04/20 00:50:26;;;;;;;17.15;14.55;;;7.70;99.90;;;;;;2100358;28;20033;-70
2021/04/20 00:51:27;;;;;;;14.70;12.95;;;7.70;99.90;;;;;;2096390;28;20024;-70
2021/04/20 00:52:27;;;;;;;16.90;14.10;;;7.70;99.90;;;;;;2095834;28;20066;-70
2021/04/20 00:53:28;;;;;;;13.80;12.35;;;7.70;99.90;;;;;;2097286;28;20059;-70
2021/04/20 00:54:28;;;;;;;17.33;14.85;;;7.70;99.90;;;;;;2105038;28;20256;-70
2021/04/20 00:55:29;;;;;;;16.45;14.70;;;7.70;99.90;;;;;;2101961;28;20032;-70
2021/04/20 00:56:30;;;;;;;16.63;14.65;;;7.60;99.90;;;;;;2097098;28;20051;-70
2021/04/20 00:57:31;;;;;;;22.27;15.77;;;7.60;99.90;;;;;;2096793;28;20024;-70
2021/04/20 00:58:31;;;;;;;17.63;15.27;;;7.60;99.90;;;;;;2097143;28;20028;-70
2021/04/20 00:59:32;;;;;;;17.73;15.15;;;7.60;99.90;;;;;;2097022;28;20033;-70
2021/04/20 01:00:32;;;;;;;15.73;13.98;;;7.60;99.90;;;;;;2097737;28;20060;-70
2021/04/20 01:01:33;;;;;;;18.35;14.52;;;7.60;99.90;;;;;;2097048;28;20474;-70
2021/04/20 01:02:34;;;;;;;15.68;11.93;;;7.60;99.90;;;;;;2104154;28;20430;-69
2021/04/20 01:03:35;;;;;;;15.20;12.75;;;7.60;99.90;;;;;;2104364;28;20058;-69
2021/04/20 01:04:35;;;;;;;16.30;13.85;;;7.60;99.90;;;;;;2096899;28;20078;-70
2021/04/20 01:05:37;;;;;;;14.70;13.05;;;7.60;99.90;;;;;;2097005;28;20056;-69
2021/04/20 01:06:39;;;;;;;15.57;13.52;;;7.50;99.90;;;;;;2098902;28;21076;-69
2021/04/20 01:07:41;;;;;;;16.77;14.27;;;7.60;99.90;;;;;;2104601;28;20475;-69
2021/04/20 01:08:42;;;;;;;14.68;12.98;;;7.50;99.90;;;;;;2100935;28;20025;-69
2021/04/20 01:09:43;;;;;;;13.02;11.73;;;7.50;99.90;;;;;;2096605;28;20385;-70
2021/04/20 01:10:48;;;;;;;16.15;13.23;;;7.50;99.90;;;;;;2104862;28;20036;-69
2021/04/20 01:11:50;;;;;;;16.88;14.45;;;7.50;99.90;;;;;;2105304;28;20020;-69
2021/04/20 01:12:51;;;;;;;16.27;13.45;;;7.50;99.90;;;;;;2104613;28;20056;-69
2021/04/20 01:13:52;;;;;;;14.32;12.35;;;7.50;99.90;;;;;;2105266;28;20527;-70
2021/04/20 01:14:52;;;;;;;15.27;12.52;;;7.50;99.90;;;;;;2104770;28;20433;-69
2021/04/20 01:15:54;;;;;;;17.05;14.55;;;7.50;99.90;;;;;;2105551;28;20028;-69
2021/04/20 01:16:54;;;;;;;17.67;13.75;;;7.50;99.90;;;;;;2102630;28;20028;-69
2021/04/20 01:17:55;;;;;;;16.70;14.25;;;7.50;99.90;;;;;;2096020;28;20033;-69
2021/04/20 01:18:56;;;;;;;14.07;12.60;;;7.40;99.90;;;;;;2096845;28;20163;-69
2021/04/20 01:19:59;;;;;;;14.77;12.80;;;7.40;99.90;;;;;;2096009;28;20100;-69
2021/04/20 01:21:04;;;;;;;17.23;14.13;;;7.40;99.90;;;;;;2096154;28;20146;-69
2021/04/20 01:22:06;;;;;;;13.98;12.50;;;7.40;99.90;;;;;;2096905;28;20438;-69
2021/04/20 01:23:09;;;;;;;17.38;14.52;;;7.40;99.90;;;;;;2096147;28;20055;-69
2021/04/20 01:24:10;;;;;;;15.60;13.60;;;7.40;99.90;;;;;;2096757;28;20449;-69
2021/04/20 01:25:13;;;;;;;13.85;12.40;;;7.40;99.90;;;;;;2096259;28;20097;-70
2021/04/20 01:26:14;;;;;;;14.73;13.13;;;7.40;99.90;;;;;;2096921;28;20536;-69
2021/04/20 01:27:16;;;;;;;17.63;13.80;;;7.30;99.90;;;;;;2096185;28;20024;-69
2021/04/20 01:28:16;;;;;;;16.08;11.85;;;7.40;99.90;;;;;;2096137;28;20103;-69
2021/04/20 01:29:17;;;;;;;15.05;12.75;;;7.30;99.90;;;;;;2096767;28;20043;-69
2021/04/20 01:30:18;;;;;;;16.17;14.48;;;7.30;99.90;;;;;;2096729;28;20086;-69
2021/04/20 01:31:19;;;;;;;15.18;13.45;;;7.30;99.90;;;;;;2095770;28;20028;-69
2021/04/20 01:32:20;;;;;;;18.08;14.50;;;7.30;99.90;;;;;;2095688;28;20099;-69
2021/04/20 01:33:20;;;;;;;16.35;14.18;;;7.30;99.90;;;;;;2105350;28;20038;-69
2021/04/20 01:34:21;;;;;;;16.33;14.45;;;7.30;99.90;;;;;;2105072;28;20012;-69
2021/04/20 01:35:22;;;;;;;15.88;13.55;;;7.30;99.90;;;;;;2105296;28;20015;-69
2021/04/20 01:36:25;;;;;;;15.52;13.25;;;7.30;99.90;;;;;;2104162;28;20034;-69
2021/04/20 01:37:25;;;;;;;18.00;14.13;;;7.30;99.90;;;;;;2104684;28;20031;-69
2021/04/20 01:38:30;;;;;;;18.42;16.13;;;7.30;99.90;;;;;;2098489;28;20095;-69
2021/04/20 01:39:30;;;;;;;18.75;14.98;;;7.30;99.90;;;;;;2096105;28;20074;-69
2021/04/20 01:40:31;;;;;;;16.95;14.38;;;7.30;99.90;;;;;;2095840;28;20033;-69
2021/04/20 01:41:33;;;;;;;18.05;14.07;;;7.30;99.90;;;;;;2096737;28;20021;-69
2021/04/20 01:42:34;;;;;;;15.95;13.15;;;7.20;99.90;;;;;;2096101;28;20020;-69
2021/04/20 01:43:35;;;;;;;14.32;12.82;;;7.30;99.90;;;;;;2096570;28;20020;-69
2021/04/20 01:44:36;;;;;;;18.80;15.10;;;7.20;99.90;;;;;;2096446;28;20025;-69
2021/04/20 01:45:38;;;;;;;15.27;13.23;;;7.20;99.90;;;;;;2090690;28;20024;-69
2021/04/20 01:46:40;;;;;;;15.93;14.10;;;7.20;99.90;;;;;;2103924;28;20513;-69
2021/04/20 01:47:40;;;;;;;16.98;14.45;;;7.20;99.90;;;;;;2098606;28;20036;-69
2021/04/20 01:48:42;;;;;;;18.02;14.55;;;7.20;99.90;;;;;;2100333;28;20032;-69
2021/04/20 01:49:43;;;;;;;20.83;14.98;;;7.20;99.90;;;;;;2088323;28;20047;-69
2021/04/20 01:50:44;;;;;;;18.92;16.52;;;7.20;99.90;;;;;;2093000;28;20029;-69
2021/04/20 01:51:44;;;;;;;15.25;13.65;;;7.20;99.90;;;;;;2096606;28;20052;-69
2021/04/20 01:52:45;;;;;;;16.55;14.57;;;7.20;99.90;;;;;;2096295;28;20039;-70
2021/04/20 01:53:49;;;;;;;16.42;14.15;;;7.20;99.90;;;;;;2096158;28;20036;-69
2021/04/20 01:54:50;;;;;;;16.42;13.70;;;7.10;99.90;;;;;;2096700;28;20047;-69
2021/04/20 01:56:06;;;;;;;16.77;15.00;;;7.10;99.90;;;;;;2096346;28;20135;-69
2021/04/20 01:57:09;;;;;;;19.20;16.10;;;7.10;99.90;;;;;;2096587;28;20463;-69
2021/04/20 01:58:10;;;;;;;19.30;16.60;;;7.10;99.90;;;;;;2096241;28;20414;-69
2021/04/20 01:59:11;;;;;;;22.25;17.52;;;7.10;99.90;;;;;;2096709;28;20027;-69
2021/04/20 02:00:14;;;;;;;16.20;14.50;;;7.10;99.90;;;;;;2096404;28;20024;-70
2021/04/20 02:01:23;;;;;;;18.58;14.98;;;7.10;99.90;;;;;;2097928;28;20020;-69
2021/04/20 02:02:24;;;;;;;17.70;15.90;;;7.10;99.90;;;;;;2097170;28;20036;-69
2021/04/20 02:03:26;;;;;;;17.38;15.15;;;7.10;99.90;;;;;;2099963;28;20055;-69
2021/04/20 02:04:27;;;;;;;14.63;12.85;;;7.10;99.90;;;;;;2106213;28;20028;-69
2021/04/20 02:05:28;;;;;;;14.55;13.00;;;7.00;99.90;;;;;;2105975;28;20467;-70
2021/04/20 02:06:28;;;;;;;14.88;12.43;;;7.00;99.90;;;;;;2105243;28;20093;-69
2021/04/20 02:07:29;;;;;;;15.50;13.50;;;7.00;99.90;;;;;;2097040;28;20032;-69
2021/04/20 02:08:30;;;;;;;16.60;13.23;;;7.00;99.90;;;;;;2105472;28;20035;-69
2021/04/20 02:09:30;;;;;;;14.93;13.32;;;7.00;99.90;;;;;;2106213;28;20106;-69
2021/04/20 02:10:32;;;;;;;14.82;13.13;;;7.00;99.90;;;;;;2105988;28;20519;-69
2021/04/20 02:11:33;;;;;;;15.57;12.77;;;7.00;99.90;;;;;;2105601;28;20016;-69
2021/04/20 02:12:36;;;;;;;17.45;15.27;;;7.00;99.90;;;;;;2104616;28;20077;-69
2021/04/20 02:13:37;;;;;;;14.88;12.95;;;7.00;99.90;;;;;;2105246;28;20024;-69
2021/04/20 02:14:38;;;;;;;14.55;13.00;;;7.00;99.90;;;;;;2105388;28;20047;-69
2021/04/20 02:15:39;;;;;;;15.65;13.57;;;7.00;99.90;;;;;;2105633;28;20020;-69
2021/04/20 02:16:41;;;;;;;16.95;14.73;;;6.90;99.90;;;;;;2105262;28;20020;-69
2021/04/20 02:17:43;;;;;;;16.95;14.65;;;7.00;99.90;;;;;;2099331;28;20028;-69
2021/04/20 02:18:46;;;;;;;17.88;14.80;;;7.00;99.90;;;;;;2097668;28;20055;-69
2021/04/20 02:19:47;;;;;;;16.27;14.40;;;6.90;99.90;;;;;;2100499;28;20028;-69
2021/04/20 02:20:49;;;;;;;17.20;14.50;;;6.90;99.90;;;;;;2106286;28;20772;-69
2021/04/20 02:21:51;;;;;;;17.75;15.90;;;7.00;99.90;;;;;;2105746;28;20028;-69
2021/04/20 02:22:53;;;;;;;16.20;14.25;;;6.90;99.90;;;;;;2103351;28;20376;-69
2021/04/20 02:23:54;;;;;;;17.55;15.10;;;7.00;99.90;;;;;;2097105;28;20030;-69
2021/04/20 02:24:54;;;;;;;17.65;15.82;;;6.90;99.90;;;;;;2097423;28;20041;-69
2021/04/20 02:26:01;;;;;;;17.40;15.48;;;6.90;99.90;;;;;;2097622;28;20103;-69
2021/04/20 02:27:02;;;;;;;17.17;14.75;;;6.90;99.90;;;;;;2097759;28;20468;-69
2021/04/20 02:28:02;;;;;;;16.67;14.52;;;6.90;99.90;;;;;;2097561;28;20353;-69
2021/04/20 02:29:05;;;;;;;16.73;14.82;;;6.90;99.90;;;;;;2097720;28;20116;-69
2021/04/20 02:30:11;;;;;;;16.63;14.55;;;6.90;99.90;;;;;;2097300;28;20020;-69
2021/04/20 02:31:12;;;;;;;18.58;15.32;;;6.90;99.90;;;;;;2097489;28;20107;-69
2021/04/20 02:32:12;;;;;;;18.73;15.90;;;6.90;99.90;;;;;;2096869;28;20020;-69
2021/04/20 02:33:13;;;;;;;15.80;13.80;;;6.90;99.90;;;;;;2103976;28;20096;-69
2021/04/20 02:34:14;;;;;;;16.88;15.07;;;6.90;99.90;;;;;;2105630;28;20031;-69
2021/04/20 02:35:17;;;;;;;17.17;15.35;;;6.90;99.90;;;;;;2105911;28;20402;-69
2021/04/20 02:36:18;;;;;;;14.77;13.13;;;6.90;99.90;;;;;;2105887;28;20458;-69
2021/04/20 02:37:18;;;;;;;17.95;16.05;;;6.90;99.90;;;;;;2105332;28;20032;-69
2021/04/20 02:38:19;;;;;;;17.17;15.38;;;6.90;99.90;;;;;;2105607;28;20378;-69
2021/04/20 02:39:21;;;;;;;15.57;13.98;;;6.90;99.90;;;;;;2106220;28;20099;-69
2021/04/20 02:40:24;;;;;;;17.98;14.07;;;6.90;99.90;;;;;;2105864;28;20055;-69
2021/04/20 02:41:26;;;;;;;17.65;15.25;;;6.90;99.90;;;;;;2090153;28;20684;-69
2021/04/20 02:42:27;;;;;;;17.13;14.10;;;6.90;99.90;;;;;;2082618;28;20025;-69
2021/04/20 02:43:28;;;;;;;17.17;14.90;;;6.90;99.90;;;;;;2088824;28;20029;-69
2021/04/20 02:44:29;;;;;;;15.10;13.50;;;6.90;99.90;;;;;;2101366;28;20108;-69
2021/04/20 02:45:31;;;;;;;15.20;13.57;;;7.00;99.90;;;;;;2105817;28;20039;-69
2021/04/20 02:46:31;;;;;;;15.02;13.43;;;7.00;99.90;;;;;;2098484;28;20075;-69
2021/04/20 02:47:36;;;;;;;15.15;13.55;;;6.90;99.90;;;;;;2097639;28;20082;-69
2021/04/20 02:48:37;;;;;;;15.43;13.00;;;7.00;99.90;;;;;;2096846;28;20483;-69
2021/04/20 02:49:38;;;;;;;17.35;14.00;;;7.00;99.90;;;;;;2096774;28;20499;-69
2021/04/20 02:50:40;;;;;;;15.65;13.90;;;7.00;99.90;;;;;;2097412;28;20029;-69
2021/04/20 02:51:43;;;;;;;15.70;13.63;;;7.00;99.90;;;;;;2097667;28;20027;-69
2021/04/20 02:52:48;;;;;;;16.80;12.73;;;7.00;99.90;;;;;;2096749;28;20390;-69
2021/04/20 02:53:48;;;;;;;16.48;14.15;;;7.00;99.90;;;;;;2097642;28;20406;-69
2021/04/20 02:54:49;;;;;;;17.52;14.73;;;7.00;99.90;;;;;;2097968;28;20033;-69
2021/04/20 02:55:51;;;;;;;16.13;14.32;;;7.00;99.90;;;;;;2099864;28;20021;-69
2021/04/20 02:56:53;;;;;;;18.20;15.00;;;7.00;99.90;;;;;;2097201;28;20464;-69
2021/04/20 02:57:57;;;;;;;15.48;13.82;;;7.00;99.90;;;;;;2097571;28;20475;-69
2021/04/20 02:59:04;;;;;;;16.63;14.25;;;7.00;99.90;;;;;;2097518;28;20028;-69
2021/04/20 03:00:11;;;;;;;16.17;13.63;;;7.00;99.90;;;;;;2097459;28;20097;-69
2021/04/20 03:01:24;;;;;;;16.55;14.75;;;7.00;99.90;;;;;;2089293;28;20032;-69
2021/04/20 03:02:25;;;;;;;15.85;13.68;;;7.00;99.90;;;;;;2094042;28;20021;-70
2021/04/20 03:03:27;;;;;;;15.50;13.57;;;7.00;99.90;;;;;;2096295;28;20040;-69
2021/04/20 03:04:28;;;;;;;16.70;13.93;;;7.00;99.90;;;;;;2096728;28;20032;-69
2021/04/20 03:05:29;;;;;;;17.75;15.00;;;7.00;99.90;;;;;;2101560;28;20035;-69
2021/04/20 03:06:30;;;;;;;16.20;13.27;;;7.00;99.90;;;;;;2105070;28;20043;-69
2021/04/20 03:07:31;;;;;;;17.35;14.40;;;7.00;99.90;;;;;;2104833;28;20503;-69
2021/04/20 03:08:32;;;;;;;18.65;14.63;;;7.00;99.90;;;;;;2104943;28;20032;-69
2021/04/20 03:09:35;;;;;;;17.20;13.68;;;7.00;99.90;;;;;;2104952;28;20028;-69
2021/04/20 03:10:38;;;;;;;16.52;13.38;;;7.10;99.90;;;;;;2104513;28;20044;-69
2021/04/20 03:11:54;;;;;;;15.55;13.77;;;7.10;99.90;;;;;;2103821;28;20081;-70
2021/04/20 03:12:55;;;;;;;17.60;14.65;;;7.10;99.90;;;;;;2103968;28;20372;-69
2021/04/20 03:13:59;;;;;;;14.90;13.13;;;7.10;99.90;;;;;;2104290;28;20021;-69
2021/04/20 03:15:00;;;;;;;15.73;13.48;;;7.10;99.90;;;;;;2103358;28;20030;-69
2021/04/20 03:16:06;;;;;;;22.15;13.63;;;7.10;99.90;;;;;;2104364;28;20020;-69
2021/04/20 03:17:06;;;;;;;14.18;12.48;;;7.10;99.90;;;;;;2104340;28;20035;-69
2021/04/20 03:18:07;;;;;;;13.88;12.25;;;7.00;99.90;;;;;;2104480;28;20016;-69
2021/04/20 03:19:08;;;;;;;16.52;13.20;;;7.00;99.90;;;;;;2104718;28;20041;-69
2021/04/20 03:20:10;;;;;;;16.50;12.68;;;7.00;99.90;;;;;;2098430;28;20021;-69
2021/04/20 03:21:15;;;;;;;15.18;13.15;;;7.00;99.90;;;;;;2094282;28;20104;-69
2021/04/20 03:22:16;;;;;;;16.80;12.98;;;7.10;99.90;;;;;;2098361;28;20043;-69
2021/04/20 03:23:18;;;;;;;15.80;13.18;;;7.10;99.90;;;;;;2096189;28;20025;-69
2021/04/20 03:25:01;;;;;;;16.52;13.43;;;7.10;99.90;;;;;;2094897;28;20036;-69
2021/04/20 03:26:07;;;;;;;14.85;12.68;;;7.00;99.90;;;;;;2084878;28;20180;-69
2021/04/20 03:27:08;;;;;;;16.20;12.70;;;7.00;99.90;;;;;;2096383;28;20039;-69
2021/04/20 03:28:09;;;;;;;14.38;12.82;;;7.00;99.90;;;;;;2095931;28;20805;-69
2021/04/20 03:29:10;;;;;;;17.08;14.02;;;7.00;99.90;;;;;;2096056;28;20081;-69
2021/04/20 03:30:13;;;;;;;18.08;13.77;;;7.00;99.90;;;;;;2103976;28;20077;-69
2021/04/20 03:31:13;;;;;;;16.60;13.85;;;7.00;99.90;;;;;;2100829;28;20032;-69
2021/04/20 03:32:14;;;;;;;18.33;14.45;;;7.00;99.90;;;;;;2095409;28;20036;-69
2021/04/20 03:33:24;;;;;;;18.25;14.93;;;7.00;99.90;;;;;;2096424;28;20083;-69
2021/04/20 03:34:25;;;;;;;;;;;7.00;99.90;;;;;;2095138;28;20035;-69
2021/04/20 03:35:44;;;;;;;16.02;12.48;;;6.90;99.90;;;;;;2095328;28;20382;-69
2021/04/20 03:36:51;;;;;;;16.73;14.33;;;6.90;99.90;;;;;;2096162;28;20131;-69
2021/04/20 03:37:58;;;;;;;16.60;13.90;;;6.90;99.90;;;;;;2095801;28;20270;-69
2021/04/20 03:39:04;;;;;;;15.20;12.45;;;6.90;99.90;;;;;;2096194;28;20028;-69
2021/04/20 03:40:11;;;;;;;16.10;12.73;;;6.90;99.90;;;;;;2096344;28;20119;-69
2021/04/20 03:41:18;;;;;;;18.67;13.20;;;6.90;99.90;;;;;;2096168;28;20047;-69
2021/04/20 03:42:27;;;;;;;17.25;13.02;;;6.90;99.90;;;;;;2097214;28;20035;-70
2021/04/20 03:43:31;;;;;;;17.48;13.63;;;6.90;99.90;;;;;;2103157;28;20024;-69
2021/04/20 03:44:48;;;;;;;18.13;13.23;;;6.90;99.90;;;;;;2095998;28;20044;-69
2021/04/20 03:45:58;;;;;;;17.20;13.27;;;6.90;99.90;;;;;;2097228;28;20077;-69
2021/04/20 03:47:03;;;;;;;14.32;12.80;;;6.90;99.90;;;;;;2098855;28;20025;-69
2021/04/20 03:48:14;;;;;;;14.98;12.02;;;6.90;99.90;;;;;;2098679;28;20036;-69
2021/04/20 03:49:21;;;;;;;15.13;11.73;;;6.90;99.90;;;;;;2100247;28;20502;-69
2021/04/20 03:50:26;;;;;;;12.88;11.35;;;6.90;99.90;;;;;;2097720;28;20025;-69
2021/04/20 03:51:29;;;;;;;15.60;12.85;;;6.90;99.90;;;;;;2097844;28;20074;-70
2021/04/20 03:52:36;;;;;;;13.23;11.75;;;6.80;99.90;;;;;;2096826;28;20441;-69
2021/04/20 03:53:41;;;;;;;15.35;12.48;;;6.80;99.90;;;;;;2092858;28;20464;-69
2021/04/20 03:54:43;;;;;;;14.00;11.55;;;6.80;99.90;;;;;;2096451;28;20032;-69
2021/04/20 03:55:50;;;;;;;16.30;12.93;;;6.80;99.90;;;;;;2094399;28;20467;-69
2021/04/20 03:56:54;;;;;;;15.10;10.73;;;6.80;99.90;;;;;;2090485;28;20998;-69
2021/04/20 03:57:56;;;;;;;14.70;12.25;;;6.80;99.90;;;;;;2097519;28;20044;-69
2021/04/20 03:59:01;;;;;;;14.25;11.70;;;6.80;99.90;;;;;;2102253;28;20087;-69
2021/04/20 04:00:06;;;;;;;14.75;11.23;;;6.80;99.90;;;;;;2106162;28;20028;-69
2021/04/20 04:01:10;;;;;;;14.05;11.82;;;6.80;99.90;;;;;;2105718;28;20054;-69
2021/04/20 04:02:11;;;;;;;15.70;11.95;;;6.80;99.90;;;;;;2105016;28;20016;-69
2021/04/20 04:03:12;;;;;;;19.60;13.10;;;6.80;99.90;;;;;;2105856;28;20031;-69
2021/04/20 04:04:16;;;;;;;15.93;12.55;;;6.80;99.90;;;;;;2106048;28;20025;-69
2021/04/20 04:05:20;;;;;;;13.05;11.48;;;6.80;99.90;;;;;;2105136;28;20032;-69
2021/04/20 04:06:21;;;;;;;18.38;12.15;;;6.80;99.90;;;;;;2097226;28;20031;-69
2021/04/20 04:07:22;;;;;;;15.57;11.20;;;6.80;99.90;;;;;;2104846;28;20074;-69
2021/04/20 04:08:23;;;;;;;15.00;11.57;;;6.70;99.90;;;;;;2105751;28;20545;-69
2021/04/20 04:09:23;;;;;;;11.18;10.00;;;6.70;99.90;;;;;;2105726;28;20118;-69
2021/04/20 04:10:28;;;;;;;13.45;11.43;;;6.70;99.90;;;;;;2105765;28;20696;-69
2021/04/20 04:11:32;;;;;;;12.88;11.00;;;6.70;99.90;;;;;;2105031;28;20031;-69
2021/04/20 04:12:38;;;;;;;12.63;10.85;;;6.70;99.90;;;;;;2100759;28;20036;-69
2021/04/20 04:13:42;;;;;;;12.80;11.15;;;6.70;99.90;;;;;;2097190;28;20028;-69
2021/04/20 04:14:44;;;;;;;16.55;11.05;;;6.70;99.90;;;;;;2097413;28;20049;-69
2021/04/20 04:15:45;;;;;;;14.00;11.52;;;6.70;99.90;;;;;;2097354;28;20035;-69
2021/04/20 04:16:48;;;;;;;15.00;11.15;;;6.60;99.90;;;;;;2097414;28;20059;-70
2021/04/20 04:17:51;;;;;;;15.48;12.32;;;6.60;99.90;;;;;;2097436;28;20077;-69
2021/04/20 04:18:53;;;;;;;13.75;11.88;;;6.60;99.90;;;;;;2097665;28;20025;-69
2021/04/20 04:19:54;;;;;;;14.48;11.65;;;6.60;99.90;;;;;;2097262;28;20469;-69
2021/04/20 04:20:58;;;;;;;15.98;12.52;;;6.60;99.90;;;;;;2097566;28;20020;-69
2021/04/20 04:22:08;;;;;;;14.50;12.40;;;6.60;99.90;;;;;;2095885;28;20059;-69
2021/04/20 04:23:36;;;;;;;16.10;11.93;;;6.60;99.90;;;;;;2095842;28;20070;-69
2021/04/20 04:24:51;;;;;;;13.85;10.85;;;6.60;99.90;;;;;;2091117;28;20063;-69
2021/04/20 04:26:04;;;;;;;18.63;14.05;;;6.50;99.90;;;;;;2090591;28;20017;-69
2021/04/20 04:27:06;;;;;;;14.45;10.85;;;6.50;99.90;;;;;;2093697;28;20031;-69
2021/04/20 04:28:08;;;;;;;16.13;12.05;;;6.50;99.90;;;;;;2096957;28;20016;-69
2021/04/20 04:29:12;;;;;;;15.00;11.77;;;6.50;99.90;;;;;;2097257;28;20047;-69
2021/04/20 04:30:15;;;;;;;16.95;12.43;;;6.50;99.90;;;;;;2100048;28;20480;-69
2021/04/20 04:31:16;;;;;;;17.35;14.10;;;6.50;99.90;;;;;;2105321;28;20058;-69
2021/04/20 04:32:19;;;;;;;20.08;12.95;;;6.50;99.90;;;;;;2100443;28;20016;-69
2021/04/20 04:33:20;;;;;;;16.27;12.63;;;6.50;99.90;;;;;;2104760;28;20111;-69
2021/04/20 04:34:21;;;;;;;19.27;13.63;;;6.50;99.90;;;;;;2105567;28;20055;-69
2021/04/20 04:35:22;;;;;;;16.38;12.55;;;6.40;99.90;;;;;;2105972;28;20073;-69
2021/04/20 04:36:23;;;;;;;15.90;12.57;;;6.50;99.90;;;;;;2094305;28;20052;-69
2021/04/20 04:37:24;;;;;;;17.48;12.60;;;6.50;99.90;;;;;;2089692;28;20120;-69
2021/04/20 04:38:25;;;;;;;18.17;13.57;;;6.50;99.90;;;;;;2088404;28;20644;-69
2021/04/20 04:39:26;;;;;;;17.75;14.05;;;6.50;99.90;;;;;;2090403;28;20016;-69
2021/04/20 04:40:27;;;;;;;19.92;12.55;;;6.40;99.90;;;;;;2088015;28;20456;-69
2021/04/20 04:41:28;;;;;;;19.92;13.40;;;6.40;99.90;;;;;;2090441;28;21060;-69
2021/04/20 04:42:29;;;;;;;17.65;13.40;;;6.40;99.90;;;;;;2090692;28;20033;-69
2021/04/20 04:43:29;;;;;;;14.98;12.75;;;6.50;99.90;;;;;;2091609;28;20033;-69
2021/04/20 04:44:30;;;;;;;15.55;13.00;;;6.40;99.90;;;;;;2090086;28;20024;-69
2021/04/20 04:45:31;;;;;;;16.55;12.32;;;6.50;99.90;;;;;;2094217;28;20100;-69
2021/04/20 04:46:32;;;;;;;14.52;11.05;;;6.40;99.90;;;;;;2091948;28;20043;-69
2021/04/20 04:47:33;;;;;;;16.33;13.85;;;6.40;99.90;;;;;;2091930;28;20033;-69
2021/04/20 04:48:35;;;;;;;16.02;12.60;;;6.40;99.90;;;;;;2091105;28;20418;-69
2021/04/20 04:49:37;;;;;;;17.83;13.95;;;6.40;99.90;;;;;;2094184;28;20025;-69
2021/04/20 04:50:40;;;;;;;19.63;14.18;;;6.40;99.90;;;;;;2093962;28;20032;-69
2021/04/20 04:51:42;;;;;;;17.85;13.93;;;6.40;99.90;;;;;;2091127;28;20095;-69
2021/04/20 04:52:46;;;;;;;17.00;13.38;;;6.40;99.90;;;;;;2089672;28;20020;-69
2021/04/20 04:53:47;;;;;;;14.18;11.95;;;6.40;99.90;;;;;;2091325;28;20399;-69
2021/04/20 04:54:48;;;;;;;15.18;12.43;;;6.40;99.90;;;;;;2089605;28;20032;-69
2021/04/20 04:55:49;;;;;;;14.23;11.60;;;6.40;99.90;;;;;;2089654;28;20044;-69
2021/04/20 04:56:50;;;;;;;17.45;12.90;;;6.40;99.90;;;;;;2091582;28;20031;-69
2021/04/20 04:57:52;;;;;;;18.13;13.18;;;6.40;99.90;;;;;;2091152;28;20077;-69
2021/04/20 04:58:56;;;;;;;17.25;14.20;;;6.40;99.90;;;;;;2094493;28;20111;-69
2021/04/20 05:00:03;;;;;;;17.25;12.27;;;6.40;99.90;;;;;;2090930;28;20075;-69
2021/04/20 05:01:04;;;;;;;19.58;14.75;;;6.40;99.90;;;;;;2093302;28;20025;-69
2021/04/20 05:02:07;;;;;;;18.98;13.73;;;6.40;99.90;;;;;;2096285;28;20509;-69
2021/04/20 05:03:08;;;;;;;18.88;13.43;;;6.40;99.90;;;;;;2096549;28;20102;-69
2021/04/20 05:04:11;;;;;;;16.15;12.23;;;6.40;99.90;;;;;;2093873;28;20029;-69
2021/04/20 05:05:14;;;;;;;17.38;13.57;;;6.40;99.90;;;;;;2094541;28;20020;-69
2021/04/20 05:06:18;;;;;;;16.92;12.98;;;6.40;99.90;;;;;;2095992;28;20017;-69
2021/04/20 05:07:25;;;;;;;17.08;13.57;;;6.40;99.90;;;;;;2096843;28;20016;-69
2021/04/20 05:08:29;;;;;;;17.27;13.65;;;6.40;99.90;;;;;;2096662;28;20412;-69
2021/04/20 05:09:30;;;;;;;19.45;14.13;;;6.40;99.90;;;;;;2094815;28;20130;-69
2021/04/20 05:10:31;;;;;;;19.80;14.55;;;6.40;99.90;;;;;;2096543;28;20483;-69
2021/04/20 05:11:31;;;;;;;21.25;15.15;;;6.40;99.90;;;;;;2096779;28;20028;-69
2021/04/20 05:12:33;;;;;;;20.20;16.20;;;6.40;99.90;;;;;;2096213;28;20033;-69
2021/04/20 05:13:34;;;;;;;18.63;13.77;;;6.50;99.90;;;;;;2096668;28;20041;-69
2021/04/20 05:14:35;;;;;;;21.17;16.08;;;6.40;99.90;;;;;;2096713;28;20424;-69
2021/04/20 05:15:35;;;;;;;19.90;13.68;;;6.50;99.90;;;;;;2096591;28;20025;-69
2021/04/20 05:16:36;;;;;;;19.02;14.57;;;6.50;99.90;;;;;;2096062;28;20095;-69
2021/04/20 05:17:37;;;;;;;20.15;14.52;;;6.50;99.90;;;;;;2097137;28;20021;-69
2021/04/20 05:18:39;;;;;;;16.83;14.73;;;6.50;99.90;;;;;;2096688;28;20025;-69
2021/04/20 05:19:41;;;;;;;19.33;14.32;;;6.50;99.90;;;;;;2096939;28;20056;-69
2021/04/20 05:20:45;;;;;;;19.45;14.73;;;6.50;99.90;;;;;;2092778;28;20028;-69
2021/04/20 05:21:48;;;;;;;23.17;14.90;;;6.50;99.90;;;;;;2096374;28;20079;-69